Time;durP1;ratioP1;P1;durP2;ratioP2;P2;SDS_P1;SDS_P2;PMS_P1;PMS_P2;Temp;Humidity;BMP_temperature;BMP_pressure;BME280_temperature;BME280_humidity;BME280_pressure;Samples;Min_cycle;Max_cycle;Signal;HPM_P1;HPM_P2
2021/01/17 00:00:49;;;;;;;3.20;2.50;;;;;;;-4.09;100.00;101228.63;5068680;28;20113;-69
2021/01/17 00:03:16;;;;;;;5.90;2.60;;;;;;;-4.07;100.00;101223.53;5052850;28;21768;-69
2021/01/17 00:05:44;;;;;;;4.70;2.70;;;;;;;-4.05;100.00;101222.78;5060349;28;20066;-69
2021/01/17 00:08:17;;;;;;;4.00;2.53;;;;;;;-4.05;100.00;101217.63;5041620;28;20042;-69
2021/01/17 00:10:43;;;;;;;3.83;2.20;;;;;;;-4.03;100.00;101217.72;5059101;28;20037;-69
2021/01/17 00:13:10;;;;;;;3.93;2.40;;;;;;;-4.01;100.00;101218.69;5053099;28;20037;-69
2021/01/17 00:15:36;;;;;;;4.20;2.70;;;;;;;-4.02;100.00;101215.22;5071115;28;20044;-69
2021/01/17 00:18:04;;;;;;;5.23;2.70;;;;;;;-4.00;99.94;101215.28;5058235;28;20039;-69
2021/01/17 00:20:30;;;;;;;4.37;2.30;;;;;;;-3.98;100.00;101217.09;5059071;28;20111;-69
2021/01/17 00:23:01;;;;;;;3.57;2.47;;;;;;;-3.97;99.39;101223.16;5071151;28;20064;-70
2021/01/17 00:25:27;;;;;;;3.97;2.50;;;;;;;-3.96;99.23;101214.59;5036111;28;20054;-70
2021/01/17 00:27:59;;;;;;;4.37;2.67;;;;;;;-3.96;98.81;101202.56;5072439;28;20028;-71
2021/01/17 00:30:28;;;;;;;4.50;2.73;;;;;;;-3.94;98.78;101206.94;5046434;28;20086;-70
2021/01/17 00:32:56;;;;;;;6.07;2.87;;;;;;;-3.95;99.15;101206.06;5077502;28;20497;-70
2021/01/17 00:35:24;;;;;;;4.53;2.43;;;;;;;-3.96;99.28;101202.56;5053908;28;20044;-70
2021/01/17 00:37:55;;;;;;;4.53;2.87;;;;;;;-3.90;98.37;101196.81;5054876;28;20390;-70
2021/01/17 00:40:22;;;;;;;3.30;2.23;;;;;;;-3.90;98.39;101198.53;5056523;28;20045;-70
2021/01/17 00:42:49;;;;;;;6.30;3.17;;;;;;;-3.87;98.09;101201.22;5053616;28;20207;-70
2021/01/17 00:45:16;;;;;;;3.60;2.17;;;;;;;-3.87;97.40;101193.47;5061993;28;20447;-70
2021/01/17 00:47:44;;;;;;;4.20;2.40;;;;;;;-3.87;97.16;101193.47;5053106;28;20094;-70
2021/01/17 00:50:12;;;;;;;5.03;2.67;;;;;;;-3.87;97.60;101189.19;5037285;28;20158;-70
2021/01/17 00:52:38;;;;;;;4.17;2.40;;;;;;;-3.87;97.71;101193.47;5052831;28;20036;-70
2021/01/17 00:55:05;;;;;;;4.10;2.73;;;;;;;-3.88;98.12;101186.56;5054299;28;20151;-70
2021/01/17 00:57:31;;;;;;;6.07;3.40;;;;;;;-3.88;97.16;101181.41;5057514;28;20040;-70
2021/01/17 00:59:57;;;;;;;5.03;2.87;;;;;;;-3.85;96.50;101179.84;5073252;28;20037;-70
2021/01/17 01:02:23;;;;;;;5.07;2.60;;;;;;;-3.86;97.23;101184.97;5057576;28;20512;-70
2021/01/17 01:04:50;;;;;;;3.07;2.53;;;;;;;-3.86;97.42;101190.13;5056916;28;20406;-70
2021/01/17 01:07:16;;;;;;;4.50;2.80;;;;;;;-3.87;97.03;101186.63;5051148;28;20025;-70
2021/01/17 01:09:42;;;;;;;4.33;3.33;;;;;;;-3.85;97.57;101186.72;5053526;28;20036;-70
2021/01/17 01:12:09;;;;;;;3.37;2.60;;;;;;;-3.86;97.95;101183.25;5075308;28;20028;-70
2021/01/17 01:14:35;;;;;;;4.70;3.00;;;;;;;-3.85;98.03;101178.97;5071217;28;20044;-70
2021/01/17 01:17:01;;;;;;;3.27;2.37;;;;;;;-3.85;98.17;101174.69;5052609;28;20036;-70
2021/01/17 01:19:28;;;;;;;4.13;2.70;;;;;;;-3.84;97.92;101178.16;5071582;28;20037;-70
2021/01/17 01:21:54;;;;;;;6.33;3.53;;;;;;;-3.80;97.66;101180.06;5069751;28;20040;-70
2021/01/17 01:24:20;;;;;;;5.83;3.43;;;;;;;-3.84;97.88;101168.72;5068966;28;21114;-70
2021/01/17 01:26:47;;;;;;;3.97;2.60;;;;;;;-3.84;97.85;101165.25;5064651;28;20089;-70
2021/01/17 01:29:13;;;;;;;5.27;3.10;;;;;;;-3.84;98.03;101167.84;5075484;28;20040;-70
2021/01/17 01:31:40;;;;;;;5.83;3.33;;;;;;;-3.84;97.95;101173.88;5076005;28;20036;-70
2021/01/17 01:34:07;;;;;;;4.77;3.33;;;;;;;-3.85;98.29;101164.38;5077410;28;20047;-70
2021/01/17 01:36:35;;;;;;;4.03;2.97;;;;;;;-3.85;98.99;101160.91;5051962;28;20086;-70
2021/01/17 01:39:03;;;;;;;4.33;2.87;;;;;;;-3.85;99.24;101155.75;5051447;28;20036;-70
2021/01/17 01:41:30;;;;;;;4.77;2.77;;;;;;;-3.85;99.05;101148.88;5030333;28;20102;-70
2021/01/17 01:43:56;;;;;;;6.53;3.43;;;;;;;-3.77;98.31;101154.41;5057126;28;20048;-70
2021/01/17 01:46:25;;;;;;;4.77;2.90;;;;;;;-3.81;97.95;101152.47;5052480;28;20047;-70
2021/01/17 01:48:52;;;;;;;5.53;2.97;;;;;;;-3.84;98.34;101150.66;5072823;28;20044;-70
2021/01/17 01:51:20;;;;;;;4.27;2.80;;;;;;;-3.84;98.00;101147.19;5066095;28;21660;-70
2021/01/17 01:53:46;;;;;;;5.40;2.97;;;;;;;-3.82;98.03;101145.53;5077759;28;20134;-70
2021/01/17 01:56:13;;;;;;;5.83;3.10;;;;;;;-3.77;98.27;101144.06;5070419;28;20112;-70
2021/01/17 01:58:41;;;;;;;3.60;2.53;;;;;;;-3.79;98.55;101140.50;5044343;28;20036;-70
2021/01/17 02:01:07;;;;;;;5.00;2.70;;;;;;;-3.80;98.85;101139.63;5049311;28;20048;-70
2021/01/17 02:03:33;;;;;;;5.30;2.80;;;;;;;-3.80;99.23;101139.63;5039151;28;20044;-70
2021/01/17 02:06:00;;;;;;;4.03;2.60;;;;;;;-3.79;98.77;101140.50;5059113;28;20048;-70
2021/01/17 02:09:04;;;;;;;3.90;2.83;;;;;;;-3.80;98.90;101133.59;5063087;28;20663;-70
2021/01/17 02:11:56;;;;;;;4.47;2.80;;;;;;;-3.81;99.02;101131.81;5078948;28;20436;-70
2021/01/17 02:14:34;;;;;;;4.27;2.77;;;;;;;-3.82;99.60;101125.78;5037829;28;20036;-70
2021/01/17 02:17:02;;;;;;;5.43;2.93;;;;;;;-3.83;99.18;101125.72;5036652;28;20095;-70
2021/01/17 02:19:30;;;;;;;4.43;2.63;;;;;;;-3.84;99.35;101127.41;5060778;28;20047;-70
2021/01/17 02:21:58;;;;;;;4.07;2.73;;;;;;;-3.84;99.63;101122.25;5053485;28;20036;-70
2021/01/17 02:24:35;;;;;;;4.77;2.97;;;;;;;-3.85;99.53;101114.44;5050917;28;20118;-70
2021/01/17 02:27:02;;;;;;;4.20;3.00;;;;;;;-3.85;99.25;101112.75;5044848;28;20387;-70
2021/01/17 02:29:28;;;;;;;4.93;2.93;;;;;;;-3.88;99.17;101125.50;5056214;28;20047;-70
2021/01/17 02:32:01;;;;;;;4.20;3.00;;;;;;;-3.92;99.10;101120.13;5058065;28;20044;-70
2021/01/17 02:34:28;;;;;;;4.00;2.50;;;;;;;-3.93;99.39;101118.38;5050733;28;20086;-70
2021/01/17 02:37:04;;;;;;;5.73;2.93;;;;;;;-3.96;99.23;101112.25;5048757;28;20048;-70
2021/01/17 02:39:56;;;;;;;4.53;2.87;;;;;;;-3.95;99.27;101118.31;5039260;28;20056;-70
2021/01/17 02:42:22;;;;;;;5.40;3.20;;;;;;;-3.95;99.34;101120.91;5042706;28;20505;-70
2021/01/17 02:44:49;;;;;;;4.20;2.50;;;;;;;-3.97;99.39;101115.63;5063481;28;20090;-70
2021/01/17 02:47:15;;;;;;;4.47;3.10;;;;;;;-3.97;99.65;101115.63;5036909;28;20033;-70
2021/01/17 02:49:41;;;;;;;5.87;2.80;;;;;;;-3.97;99.51;101118.22;5064149;28;20036;-70
2021/01/17 02:52:08;;;;;;;5.37;3.20;;;;;;;-3.96;99.89;101116.50;5048192;28;20094;-70
2021/01/17 02:54:37;;;;;;;5.10;3.07;;;;;;;-3.96;100.00;101114.81;5046140;28;20050;-70
2021/01/17 02:57:06;;;;;;;4.13;2.73;;;;;;;-3.97;100.00;101125.97;5063907;28;20048;-70
2021/01/17 02:59:46;;;;;;;4.60;3.10;;;;;;;-3.97;99.95;101130.25;5045546;28;20498;-70
2021/01/17 03:02:13;;;;;;;5.10;3.10;;;;;;;-3.99;100.00;101112.09;5048612;28;20101;-70
2021/01/17 03:04:46;;;;;;;5.70;3.10;;;;;;;-4.00;100.00;101119.78;5055172;28;20036;-70
2021/01/17 03:07:13;;;;;;;4.20;2.57;;;;;;;-4.01;100.00;101121.50;5049373;28;20479;-70
2021/01/17 03:09:44;;;;;;;5.80;3.33;;;;;;;-4.03;100.00;101117.09;5065541;28;20098;-70
2021/01/17 03:12:11;;;;;;;5.50;3.03;;;;;;;-4.06;99.88;101117.81;5048718;28;20070;-70
2021/01/17 03:14:39;;;;;;;4.10;2.40;;;;;;;-4.06;100.00;101124.66;5064532;28;20051;-70
2021/01/17 03:17:06;;;;;;;4.50;2.80;;;;;;;-4.06;100.00;101120.38;5063992;28;20066;-70
2021/01/17 03:19:33;;;;;;;4.63;2.90;;;;;;;-4.05;100.00;101124.72;5043114;28;20412;-70
2021/01/17 03:22:00;;;;;;;4.63;2.43;;;;;;;-4.03;100.00;101130.00;5049068;28;20114;-70
2021/01/17 03:24:27;;;;;;;4.63;3.30;;;;;;;-4.04;100.00;101118.75;5065956;28;20078;-70
2021/01/17 03:26:53;;;;;;;5.37;2.80;;;;;;;-4.05;100.00;101123.84;5029898;28;20047;-70
2021/01/17 03:29:20;;;;;;;4.27;2.50;;;;;;;-4.07;100.00;101121.19;5064852;28;20051;-70
2021/01/17 03:31:46;;;;;;;4.93;2.73;;;;;;;-4.09;100.00;101124.53;5040975;28;20103;-70
2021/01/17 03:34:13;;;;;;;3.77;2.30;;;;;;;-4.10;100.00;101120.19;5022907;28;20033;-70
2021/01/17 03:36:39;;;;;;;4.40;2.53;;;;;;;-4.12;100.00;101122.72;5027423;28;20098;-70
2021/01/17 03:39:05;;;;;;;4.97;2.60;;;;;;;-4.12;100.00;101114.97;5067235;28;20098;-70
2021/01/17 03:41:32;;;;;;;5.00;2.63;;;;;;;-4.12;100.00;101120.13;5046746;28;20028;-70
2021/01/17 03:43:58;;;;;;;3.67;2.30;;;;;;;-4.12;100.00;101117.56;5049666;28;20040;-70
2021/01/17 03:46:24;;;;;;;4.77;2.77;;;;;;;-4.11;100.00;101114.16;5047207;28;20047;-70
2021/01/17 03:48:50;;;;;;;4.93;2.70;;;;;;;-4.10;100.00;101121.06;5054956;28;20378;-70
2021/01/17 03:51:17;;;;;;;5.53;3.10;;;;;;;-4.10;100.00;101123.66;5047881;28;20040;-70
2021/01/17 03:53:43;;;;;;;4.50;2.70;;;;;;;-4.09;100.00;101120.25;5075481;28;20125;-70
2021/01/17 03:56:09;;;;;;;5.93;3.60;;;;;;;-4.07;100.00;101126.38;5065365;28;20041;-70
2021/01/17 03:58:35;;;;;;;5.23;3.00;;;;;;;-4.06;100.00;101128.13;5046992;28;20032;-70
2021/01/17 04:01:02;;;;;;;4.23;2.70;;;;;;;-4.04;100.00;101131.66;5056517;28;20125;-70
2021/01/17 04:03:28;;;;;;;3.80;2.70;;;;;;;-4.04;100.00;101134.22;5056472;28;20422;-70
2021/01/17 04:05:54;;;;;;;4.53;2.77;;;;;;;-4.02;100.00;101127.47;5027945;28;20118;-70
2021/01/17 04:08:20;;;;;;;4.73;2.93;;;;;;;-4.00;100.00;101133.56;5043326;28;20036;-70
2021/01/17 04:10:46;;;;;;;4.57;2.90;;;;;;;-3.99;100.00;101131.88;5067868;28;20036;-70
2021/01/17 04:13:12;;;;;;;4.27;2.57;;;;;;;-3.97;100.00;101132.81;5061889;28;20059;-70
2021/01/17 04:15:38;;;;;;;3.80;3.03;;;;;;;-3.97;100.00;101136.28;5029639;28;20131;-70
2021/01/17 04:18:05;;;;;;;5.83;3.23;;;;;;;-3.96;100.00;101132.00;5031330;28;20037;-70
2021/01/17 04:20:31;;;;;;;7.13;3.53;;;;;;;-3.97;100.00;101128.53;5037599;28;20095;-70
2021/01/17 04:23:01;;;;;;;5.27;3.10;;;;;;;-3.96;100.00;101137.16;5061741;28;20040;-70
2021/01/17 04:25:29;;;;;;;4.87;3.00;;;;;;;-3.96;100.00;101132.88;5043310;28;20033;-70
2021/01/17 04:27:56;;;;;;;4.50;2.93;;;;;;;-3.92;100.00;101133.03;5048800;28;20036;-70
2021/01/17 04:30:22;;;;;;;4.37;2.87;;;;;;;-3.92;100.00;101133.03;5048894;28;20790;-70
2021/01/17 04:32:49;;;;;;;5.90;3.13;;;;;;;-3.91;100.00;101133.09;5063423;28;20097;-70
2021/01/17 04:35:15;;;;;;;4.97;3.20;;;;;;;-3.90;100.00;101131.41;5066858;28;20119;-70
2021/01/17 04:37:41;;;;;;;5.13;2.77;;;;;;;-3.90;100.00;101131.41;5043510;28;20032;-70
2021/01/17 04:40:08;;;;;;;6.43;3.07;;;;;;;-3.91;100.00;101133.09;5045215;28;20412;-70
2021/01/17 04:42:38;;;;;;;5.00;3.50;;;;;;;-3.90;100.00;101134.00;5058223;28;20041;-70
2021/01/17 04:45:09;;;;;;;4.43;2.67;;;;;;;-3.90;100.00;101131.41;5042442;28;20048;-70
2021/01/17 04:47:36;;;;;;;7.50;3.40;;;;;;;-3.89;100.00;101134.06;5045367;28;20120;-70
2021/01/17 04:50:07;;;;;;;5.70;3.83;;;;;;;-3.87;100.00;101132.41;5051049;28;20048;-70
2021/01/17 04:52:41;;;;;;;4.73;3.10;;;;;;;-3.89;100.00;101133.16;5027770;28;20111;-70
2021/01/17 04:55:09;;;;;;;5.80;3.20;;;;;;;-3.89;100.00;101128.00;5064959;28;20444;-70
2021/01/17 04:57:50;;;;;;;4.00;2.90;;;;;;;-3.89;100.00;101130.59;5031477;28;20086;-70
2021/01/17 05:00:39;;;;;;;4.70;2.67;;;;;;;-3.89;100.00;101126.31;5064642;28;20040;-70
2021/01/17 05:03:25;;;;;;;5.63;3.30;;;;;;;-3.89;100.00;101133.16;5052956;28;20044;-70
2021/01/17 05:06:16;;;;;;;6.10;3.30;;;;;;;-3.88;100.00;101135.81;5060627;28;20673;-70
2021/01/17 05:08:45;;;;;;;6.03;3.40;;;;;;;-3.89;100.00;101135.75;5049843;28;20040;-70
2021/01/17 05:11:41;;;;;;;5.20;3.37;;;;;;;-3.88;100.00;101132.34;5055907;28;20048;-70
2021/01/17 05:14:12;;;;;;;4.90;3.03;;;;;;;-3.87;100.00;101134.13;5049250;28;20595;-70
2021/01/17 05:16:43;;;;;;;3.70;2.70;;;;;;;-3.87;100.00;101144.44;5061645;28;20037;-70
2021/01/17 05:19:14;;;;;;;4.60;3.50;;;;;;;-3.87;100.00;101137.56;5039783;28;20059;-70
2021/01/17 05:21:45;;;;;;;5.17;2.87;;;;;;;-3.86;100.00;101143.66;5053358;28;20454;-70
2021/01/17 05:24:13;;;;;;;5.27;3.13;;;;;;;-3.86;100.00;101141.06;5065538;28;20099;-70
2021/01/17 05:27:00;;;;;;;7.00;3.87;;;;;;;-3.85;100.00;101150.59;5044078;28;20050;-70
2021/01/17 05:29:28;;;;;;;6.27;3.90;;;;;;;-3.85;100.00;101158.31;5062907;28;20528;-70
2021/01/17 05:32:02;;;;;;;6.77;2.93;;;;;;;-3.84;100.00;101154.94;5041146;28;20113;-70
2021/01/17 05:34:29;;;;;;;6.45;3.95;;;;;;;-3.85;100.00;101146.31;5068555;28;20037;-70
2021/01/17 05:37:07;;;;;;;7.60;3.93;;;;;;;-3.82;100.00;101153.28;5052685;28;20120;-70
2021/01/17 05:39:52;;;;;;;7.07;4.17;;;;;;;-3.83;100.00;101159.28;5068344;28;20090;-70
2021/01/17 05:42:24;;;;;;;;;;;;;;;-3.82;100.00;101151.59;5050032;28;20440;-70
2021/01/17 05:44:53;;;;;;;8.33;3.40;;;;;;;-3.81;100.00;101150.78;5075647;28;19968;-70
2021/01/17 05:47:21;;;;;;;6.67;3.70;;;;;;;-3.80;100.00;101157.69;5049420;28;20044;-70
2021/01/17 05:49:51;;;;;;;6.70;3.63;;;;;;;-3.78;100.00;101153.50;5053229;28;20056;-70
2021/01/17 05:52:18;;;;;;;7.87;3.77;;;;;;;-3.78;100.00;101160.38;5071509;28;20444;-71
2021/01/17 05:54:49;;;;;;;5.93;4.10;;;;;;;-3.76;100.00;101166.47;5057276;28;20126;-71
2021/01/17 05:57:25;;;;;;;7.77;3.93;;;;;;;-3.79;100.00;101153.41;5052997;28;20078;-71
2021/01/17 05:59:52;;;;;;;6.60;3.63;;;;;;;-3.80;100.00;101156.81;5038644;28;20040;-71
2021/01/17 06:02:20;;;;;;;8.70;4.20;;;;;;;-3.78;100.00;101161.25;5053233;28;20044;-71
2021/01/17 06:05:00;;;;;;;6.23;3.63;;;;;;;-3.78;100.00;101175.88;5065321;28;20105;-71
2021/01/17 06:07:29;;;;;;;6.80;4.00;;;;;;;-3.79;100.00;101174.06;5033836;28;20063;-71
2021/01/17 06:10:03;;;;;;;6.23;3.53;;;;;;;-3.80;100.00;101173.19;5049046;28;20044;-71
2021/01/17 06:12:34;;;;;;;5.05;3.33;;;;;;;-3.79;100.00;101179.22;5037859;28;20072;-71
2021/01/17 06:15:02;;;;;;;6.17;3.77;;;;;;;-3.80;100.00;101180.06;5054434;28;20750;-70
2021/01/17 06:17:30;;;;;;;8.40;4.17;;;;;;;-3.80;100.00;101170.59;5055112;28;20037;-71
2021/01/17 06:19:57;;;;;;;6.13;3.43;;;;;;;-3.79;100.00;101174.06;5051780;28;20048;-70
2021/01/17 06:22:23;;;;;;;5.80;3.37;;;;;;;-3.80;100.00;101180.94;5065953;28;20044;-71
2021/01/17 06:24:58;;;;;;;6.43;3.80;;;;;;;-3.82;100.00;101185.16;5067502;28;20047;-70
2021/01/17 06:27:26;;;;;;;7.80;4.37;;;;;;;-3.81;100.00;101184.34;5077983;28;20096;-71
2021/01/17 06:29:52;;;;;;;6.23;4.00;;;;;;;-3.81;100.00;101188.63;5052424;28;20067;-70
2021/01/17 06:32:20;;;;;;;6.27;3.40;;;;;;;-3.82;100.00;101187.72;5054050;28;20040;-71
2021/01/17 06:34:54;;;;;;;7.27;4.03;;;;;;;-3.83;100.00;101185.97;5052638;28;20088;-70
2021/01/17 06:37:22;;;;;;;8.85;4.93;;;;;;;-3.85;100.00;101187.59;5046332;28;20036;-70
2021/01/17 06:39:51;;;;;;;6.60;4.00;;;;;;;-3.84;100.00;101184.19;5053521;28;20044;-70
2021/01/17 06:42:19;;;;;;;8.20;4.13;;;;;;;-3.85;100.00;101190.19;5050126;28;20079;-70
2021/01/17 06:44:46;;;;;;;6.13;3.87;;;;;;;-3.84;100.00;101183.31;5066055;28;20044;-70
2021/01/17 06:47:23;;;;;;;7.50;4.17;;;;;;;-3.85;100.00;101191.88;5067696;28;20051;-70
2021/01/17 06:49:51;;;;;;;6.50;3.60;;;;;;;-3.85;100.00;101197.94;5047353;28;20044;-70
2021/01/17 06:52:18;;;;;;;8.70;4.43;;;;;;;-3.85;100.00;101197.03;5049005;28;20072;-70
2021/01/17 06:54:48;;;;;;;5.70;3.60;;;;;;;-3.84;100.00;101199.69;5071976;28;20036;-70
2021/01/17 06:57:15;;;;;;;7.13;3.93;;;;;;;-3.84;100.00;101199.69;5042379;28;20371;-70
2021/01/17 06:59:46;;;;;;;7.20;4.50;;;;;;;-3.86;100.00;101201.31;5042132;28;20044;-70
2021/01/17 07:02:12;;;;;;;7.47;4.23;;;;;;;-3.85;100.00;101203.09;5063689;28;20071;-70
2021/01/17 07:04:53;;;;;;;7.37;3.83;;;;;;;-3.83;100.00;101205.72;5039342;28;20196;-70
2021/01/17 07:07:42;;;;;;;5.57;4.00;;;;;;;-3.82;100.00;101207.50;5046641;28;20110;-70
2021/01/17 07:10:09;;;;;;;7.10;4.13;;;;;;;-3.79;100.00;101210.22;5056155;28;20431;-70
2021/01/17 07:12:55;;;;;;;7.20;4.30;;;;;;;-3.77;100.00;101214.66;5064887;28;20122;-70
2021/01/17 07:15:26;;;;;;;6.67;4.13;;;;;;;-3.74;100.00;101216.47;5042622;28;20044;-70
2021/01/17 07:18:06;;;;;;;6.87;3.70;;;;;;;-3.71;100.00;101217.50;5044446;28;20029;-70
2021/01/17 07:20:36;;;;;;;6.07;4.27;;;;;;;-3.69;100.00;101212.44;5047603;28;20045;-70
2021/01/17 07:23:04;;;;;;;7.43;4.37;;;;;;;-3.70;100.00;101214.13;5046317;28;20109;-70
2021/01/17 07:25:31;;;;;;;7.10;4.23;;;;;;;-3.70;100.00;101216.72;5038224;28;20036;-70
2021/01/17 07:28:06;;;;;;;6.80;4.30;;;;;;;-3.69;100.00;101215.88;5053531;28;20105;-70
2021/01/17 07:30:35;;;;;;;6.47;4.00;;;;;;;-3.67;100.00;101228.88;5070899;28;20036;-71
2021/01/17 07:33:03;;;;;;;6.70;4.13;;;;;;;-3.66;100.00;101229.75;5064006;28;20043;-70
2021/01/17 07:35:36;;;;;;;7.87;4.27;;;;;;;-3.66;100.00;101232.31;5057605;28;20502;-70
2021/01/17 07:38:09;;;;;;;9.20;4.87;;;;;;;-3.63;100.00;101232.47;5060576;28;20111;-70
2021/01/17 07:40:51;;;;;;;7.33;5.17;;;;;;;-3.60;100.00;101235.19;5047382;28;20093;-70
2021/01/17 07:43:22;;;;;;;9.70;5.57;;;;;;;-3.56;100.00;101237.97;5037324;28;20799;-70
2021/01/17 07:45:50;;;;;;;9.67;6.23;;;;;;;-3.55;100.00;101234.56;5062613;28;20083;-70
2021/01/17 07:48:17;;;;;;;10.70;5.90;;;;;;;-3.53;100.00;101238.13;5041696;28;20054;-70
2021/01/17 07:50:49;;;;;;;8.93;5.97;;;;;;;-3.50;100.00;101247.72;5062722;28;20032;-70
2021/01/17 07:53:36;;;;;;;8.03;5.63;;;;;;;-3.48;100.00;101241.78;5030199;28;20060;-70
2021/01/17 07:56:24;;;;;;;10.47;6.07;;;;;;;-3.42;100.00;101242.06;5058836;28;20179;-70
2021/01/17 07:58:52;;;;;;;11.20;6.20;;;;;;;-3.33;100.00;101243.31;5057995;28;20064;-70
2021/01/17 08:01:31;;;;;;;8.67;5.60;;;;;;;-3.28;100.00;101242.69;5051186;28;20071;-70
2021/01/17 08:04:01;;;;;;;9.37;5.37;;;;;;;-3.23;100.00;101250.63;5062434;28;20067;-70
2021/01/17 08:06:36;;;;;;;7.17;4.63;;;;;;;-3.20;100.00;101245.59;5061082;28;20033;-70
2021/01/17 08:09:18;;;;;;;11.23;5.93;;;;;;;-3.15;100.00;101245.00;5033304;28;20040;-70
2021/01/17 08:11:49;;;;;;;22.77;10.53;;;;;;;-3.09;100.00;101246.97;5027333;28;20090;-70
2021/01/17 08:14:29;;;;;;;14.07;7.27;;;;;;;-3.06;100.00;101246.22;5033043;28;20045;-70
2021/01/17 08:17:14;;;;;;;11.13;6.67;;;;;;;-3.01;100.00;101247.31;5030276;28;20431;-70
2021/01/17 08:19:43;;;;;;;;;;;;;;;-2.98;100.00;101256.06;5055834;28;20126;-70
2021/01/17 08:22:19;;;;;;;12.40;5.83;;;;;;;-2.95;100.00;101255.31;5060913;28;19921;-70
2021/01/17 08:24:49;;;;;;;10.83;6.20;;;;;;;-2.92;100.00;101251.16;5052723;28;20071;-70
2021/01/17 08:27:31;;;;;;;10.70;5.63;;;;;;;-2.85;100.00;101255.78;5055514;28;20448;-70
2021/01/17 08:30:00;;;;;;;13.97;7.73;;;;;;;-2.83;100.00;101250.69;5054780;28;20115;-70
2021/01/17 08:32:37;;;;;;;19.87;9.90;;;;;;;-2.77;100.00;101260.41;5036015;28;20040;-70
2021/01/17 08:35:12;;;;;;;16.97;8.27;;;;;;;-2.71;100.00;101268.41;5050280;28;20036;-70
2021/01/17 08:37:43;;;;;;;15.83;8.23;;;;;;;-2.70;100.00;101268.47;5052973;28;20041;-71
2021/01/17 08:40:10;;;;;;;14.20;8.73;;;;;;;-2.71;99.52;101269.28;5050022;28;20115;-70
2021/01/17 08:42:38;;;;;;;14.70;7.77;;;;;;;-2.68;99.45;101269.44;5053583;28;20032;-70
2021/01/17 08:45:27;;;;;;;11.00;6.50;;;;;;;-2.66;99.12;101274.69;5032953;28;20101;-70
2021/01/17 08:47:59;;;;;;;9.53;5.23;;;;;;;-2.66;99.85;101269.50;5054476;28;20036;-70
2021/01/17 08:50:36;;;;;;;10.60;6.07;;;;;;;-2.63;99.26;101265.34;5046567;28;20037;-70
2021/01/17 08:53:13;;;;;;;10.07;6.37;;;;;;;-2.56;99.11;101272.53;5050368;28;20045;-70
2021/01/17 08:55:44;;;;;;;9.17;5.03;;;;;;;-2.50;98.74;101277.09;5060734;28;20033;-71
2021/01/17 08:58:15;;;;;;;10.07;5.80;;;;;;;-2.44;98.25;101282.50;5048523;28;20087;-71
2021/01/17 09:00:53;;;;;;;9.63;5.63;;;;;;;-2.36;97.97;101288.00;5054713;28;20071;-71
2021/01/17 09:03:26;;;;;;;8.60;4.90;;;;;;;-2.33;97.68;101286.44;5047125;28;20037;-71
2021/01/17 09:05:53;;;;;;;9.53;5.20;;;;;;;-2.30;97.28;101291.72;5060568;28;20559;-71
2021/01/17 09:08:19;;;;;;;9.03;4.87;;;;;;;-2.24;97.09;101287.66;5042118;28;20497;-71
2021/01/17 09:10:46;;;;;;;9.43;4.50;;;;;;;-2.15;97.19;101282.84;5038284;28;20045;-71
2021/01/17 09:13:19;;;;;;;11.07;5.17;;;;;;;-2.05;96.82;101290.16;5052331;28;20062;-71
2021/01/17 09:15:51;;;;;;;17.42;6.05;;;;;;;-2.00;95.41;101291.22;5049203;28;20067;-71
2021/01/17 09:18:28;;;;;;;8.10;5.63;;;;;;;-1.91;95.30;101286.41;5057439;28;20040;-72
2021/01/17 09:20:56;;;;;;;9.47;4.53;;;;;;;-1.81;95.68;101279.88;5041225;28;20582;-71
2021/01/17 09:23:23;;;;;;;10.17;5.53;;;;;;;-1.72;94.32;101283.72;5054077;28;20123;-71
2021/01/17 09:25:59;;;;;;;10.80;6.10;;;;;;;-1.65;93.71;101284.84;5057602;28;20036;-71
2021/01/17 09:28:26;;;;;;;9.33;5.70;;;;;;;-1.54;93.06;101290.44;5044917;28;20545;-71
2021/01/17 09:30:55;;;;;;;8.97;5.43;;;;;;;-1.47;93.39;101290.72;5043514;28;20128;-71
2021/01/17 09:33:21;;;;;;;7.20;5.73;;;;;;;-1.50;91.77;101293.22;5045259;28;20068;-71
2021/01/17 09:35:48;;;;;;;9.83;5.77;;;;;;;-1.56;91.19;101303.34;5053813;28;20063;-71
2021/01/17 09:38:16;;;;;;;6.60;4.80;;;;;;;-1.51;91.55;101306.13;5054591;28;20685;-71
2021/01/17 09:40:44;;;;;;;8.83;5.17;;;;;;;-1.54;90.60;101309.44;5034395;28;20029;-71
2021/01/17 09:43:11;;;;;;;9.03;5.03;;;;;;;-1.44;92.17;101318.47;5055186;28;20056;-71
2021/01/17 09:45:37;;;;;;;10.13;4.67;;;;;;;-1.40;92.02;101309.13;5036430;28;20402;-71
2021/01/17 09:48:03;;;;;;;8.10;4.43;;;;;;;-1.40;91.21;101312.59;5067379;28;20075;-71
2021/01/17 09:50:34;;;;;;;10.60;5.87;;;;;;;-1.33;91.06;101313.72;5051572;28;20033;-71
2021/01/17 09:53:07;;;;;;;8.10;5.17;;;;;;;-1.24;90.62;101322.72;5062633;28;20039;-71
2021/01/17 09:55:37;;;;;;;8.90;5.53;;;;;;;-1.30;90.26;101325.06;5060984;28;20041;-71
2021/01/17 09:58:07;;;;;;;8.80;5.63;;;;;;;-1.15;90.35;101324.75;5059720;28;20110;-71
2021/01/17 10:00:33;;;;;;;6.97;4.73;;;;;;;-1.00;90.97;101330.53;5045572;28;20067;-71
2021/01/17 10:03:14;;;;;;;10.23;5.00;;;;;;;-0.85;90.59;101330.19;5037384;28;20033;-71
2021/01/17 10:05:41;;;;;;;6.57;4.50;;;;;;;-0.70;90.77;101329.84;5045127;28;20037;-71
2021/01/17 10:08:12;;;;;;;9.60;5.50;;;;;;;-0.60;90.21;101334.53;5032622;28;20036;-71
2021/01/17 10:10:40;;;;;;;6.53;3.87;;;;;;;-0.55;90.10;101343.38;5041929;28;20041;-71
2021/01/17 10:13:07;;;;;;;10.33;5.10;;;;;;;-0.55;90.11;101338.19;5061678;28;20040;-71
2021/01/17 10:15:39;;;;;;;9.83;5.20;;;;;;;-0.64;89.08;101343.94;5049622;28;20704;-71
2021/01/17 10:18:07;;;;;;;10.23;6.10;;;;;;;-0.74;88.96;101344.44;5042085;28;20048;-72
2021/01/17 10:20:38;;;;;;;13.87;6.50;;;;;;;-0.72;88.80;101345.38;5040035;28;20453;-71
2021/01/17 10:23:07;;;;;;;10.90;6.20;;;;;;;-0.68;88.21;101339.44;5054024;28;20123;-72
2021/01/17 10:25:34;;;;;;;12.27;6.23;;;;;;;-0.60;88.51;101342.31;5057559;28;20090;-71
2021/01/17 10:28:08;;;;;;;18.10;6.23;;;;;;;-0.58;87.78;101349.34;5062744;28;20078;-71
2021/01/17 10:30:36;;;;;;;13.35;7.50;;;;;;;-0.59;88.06;101357.97;5056147;28;20053;-71
2021/01/17 10:33:06;;;;;;;14.40;7.27;;;;;;;-0.52;87.93;101358.16;5061154;28;20041;-72
2021/01/17 10:35:35;;;;;;;16.50;6.67;;;;;;;-0.45;88.32;101347.19;5039818;28;20040;-71
2021/01/17 10:38:06;;;;;;;13.57;6.10;;;;;;;-0.47;87.87;101351.44;5038597;28;20044;-71
2021/01/17 10:40:34;;;;;;;10.87;6.50;;;;;;;-0.45;87.53;101349.78;5042451;28;20052;-71
2021/01/17 10:43:06;;;;;;;19.87;10.07;;;;;;;-0.38;86.93;101349.16;5040513;28;20127;-71
2021/01/17 10:45:33;;;;;;;12.77;6.80;;;;;;;-0.30;86.72;101356.38;5050373;28;20029;-71
2021/01/17 10:48:07;;;;;;;14.63;7.17;;;;;;;-0.20;86.45;101349.78;5040961;28;20037;-71
2021/01/17 10:50:38;;;;;;;10.30;6.33;;;;;;;-0.06;86.92;101352.88;5057970;28;20040;-71
2021/01/17 10:53:13;;;;;;;9.43;5.23;;;;;;;-0.08;84.45;101352.81;5060188;28;20040;-71
2021/01/17 10:55:40;;;;;;;13.30;6.30;;;;;;;-0.04;84.64;101346.88;5041759;28;20046;-71
2021/01/17 10:58:07;;;;;;;10.67;5.97;;;;;;;0.05;84.89;101348.91;5048270;28;20044;-71
2021/01/17 11:00:33;;;;;;;8.90;5.37;;;;;;;0.13;84.45;101352.63;5043318;28;20623;-71
2021/01/17 11:03:09;;;;;;;10.43;5.80;;;;;;;0.14;84.11;101356.09;5039931;28;20033;-71
2021/01/17 11:05:35;;;;;;;12.37;6.80;;;;;;;0.05;84.38;101350.63;5059566;28;20106;-69
2021/01/17 11:08:02;;;;;;;10.50;5.50;;;;;;;0.10;84.33;101349.06;5067239;28;20086;-70
2021/01/17 11:10:29;;;;;;;9.20;5.43;;;;;;;0.24;84.42;101352.97;5061191;28;20682;-70
2021/01/17 11:12:55;;;;;;;9.07;5.63;;;;;;;0.34;83.56;101351.53;5053823;28;20146;-70
2021/01/17 11:15:22;;;;;;;8.50;5.20;;;;;;;0.39;82.85;101347.38;5055144;28;20052;-70
2021/01/17 11:17:57;;;;;;;13.00;6.10;;;;;;;0.48;82.48;101348.56;5051444;28;20579;-69
2021/01/17 11:20:27;;;;;;;12.37;6.77;;;;;;;0.44;81.77;101353.63;5058609;28;20548;-69
2021/01/17 11:23:05;;;;;;;11.53;6.13;;;;;;;0.30;80.78;101355.78;5056035;28;20033;-70
2021/01/17 11:25:32;;;;;;;12.70;5.77;;;;;;;0.31;82.52;101357.53;5054058;28;20094;-70
2021/01/17 11:28:00;;;;;;;14.60;6.73;;;;;;;0.36;83.12;101355.97;5056329;28;20032;-69
2021/01/17 11:30:28;;;;;;;11.13;6.63;;;;;;;0.07;81.52;101354.13;5040535;28;20051;-70
2021/01/17 11:33:12;;;;;;;12.23;5.97;;;;;;;-0.02;83.35;101353.00;5037525;28;20083;-69